sensor_id;sensor_type;location;lat;lon;timestamp;P1;durP1;ratioP1;P2;durP2;ratioP2
6135;SDS011;24008;42.664;23.372;2023-01-23T00:02:07;11.40;;;7.87;;
6135;SDS011;24008;42.664;23.372;2023-01-23T00:04:34;12.37;;;6.70;;
6135;SDS011;24008;42.664;23.372;2023-01-23T00:07:02;11.80;;;6.40;;
6135;SDS011;24008;42.664;23.372;2023-01-23T00:09:29;8.93;;;5.50;;
6135;SDS011;24008;42.664;23.372;2023-01-23T00:11:56;7.93;;;5.50;;
6135;SDS011;24008;42.664;23.372;2023-01-23T00:14:23;10.40;;;5.77;;
6135;SDS011;24008;42.664;23.372;2023-01-23T00:16:50;9.27;;;6.37;;
6135;SDS011;24008;42.664;23.372;2023-01-23T00:19:18;9.73;;;6.47;;
6135;SDS011;24008;42.664;23.372;2023-01-23T00:21:45;8.97;;;5.80;;
6135;SDS011;24008;42.664;23.372;2023-01-23T00:24:13;9.70;;;6.33;;
6135;SDS011;24008;42.664;23.372;2023-01-23T00:26:40;9.30;;;6.73;;
6135;SDS011;24008;42.664;23.372;2023-01-23T00:29:07;9.80;;;6.73;;
6135;SDS011;24008;42.664;23.372;2023-01-23T00:31:35;10.20;;;6.40;;
6135;SDS011;24008;42.664;23.372;2023-01-23T00:34:05;9.77;;;6.60;;
6135;SDS011;24008;42.664;23.372;2023-01-23T00:36:33;8.43;;;6.60;;
6135;SDS011;24008;42.664;23.372;2023-01-23T00:39:01;9.67;;;6.50;;
6135;SDS011;24008;42.664;23.372;2023-01-23T00:41:32;8.67;;;5.93;;
6135;SDS011;24008;42.664;23.372;2023-01-23T00:43:59;8.33;;;6.40;;
6135;SDS011;24008;42.664;23.372;2023-01-23T00:46:26;10.00;;;7.13;;
6135;SDS011;24008;42.664;23.372;2023-01-23T00:48:53;9.90;;;6.17;;
6135;SDS011;24008;42.664;23.372;2023-01-23T00:51:20;9.93;;;6.00;;
6135;SDS011;24008;42.664;23.372;2023-01-23T00:53:46;9.40;;;6.33;;
6135;SDS011;24008;42.664;23.372;2023-01-23T00:56:13;13.17;;;6.70;;
6135;SDS011;24008;42.664;23.372;2023-01-23T00:58:41;9.67;;;6.73;;
6135;SDS011;24008;42.664;23.372;2023-01-23T01:01:08;9.80;;;6.23;;
6135;SDS011;24008;42.664;23.372;2023-01-23T01:03:35;9.20;;;5.27;;
6135;SDS011;24008;42.664;23.372;2023-01-23T01:06:02;9.03;;;5.57;;
6135;SDS011;24008;42.664;23.372;2023-01-23T01:08:29;8.93;;;6.30;;
6135;SDS011;24008;42.664;23.372;2023-01-23T01:10:56;10.87;;;6.40;;
6135;SDS011;24008;42.664;23.372;2023-01-23T01:13:23;12.77;;;6.80;;
6135;SDS011;24008;42.664;23.372;2023-01-23T01:15:52;9.43;;;6.73;;
6135;SDS011;24008;42.664;23.372;2023-01-23T01:18:20;9.67;;;6.57;;
6135;SDS011;24008;42.664;23.372;2023-01-23T01:20:47;11.07;;;6.50;;
6135;SDS011;24008;42.664;23.372;2023-01-23T01:23:14;10.13;;;6.57;;
6135;SDS011;24008;42.664;23.372;2023-01-23T01:25:41;11.40;;;6.97;;
6135;SDS011;24008;42.664;23.372;2023-01-23T01:28:08;13.63;;;7.07;;
6135;SDS011;24008;42.664;23.372;2023-01-23T01:30:34;11.50;;;6.93;;
6135;SDS011;24008;42.664;23.372;2023-01-23T01:33:03;12.47;;;7.30;;
6135;SDS011;24008;42.664;23.372;2023-01-23T01:35:30;13.10;;;7.07;;
6135;SDS011;24008;42.664;23.372;2023-01-23T01:37:57;10.70;;;6.87;;
6135;SDS011;24008;42.664;23.372;2023-01-23T01:40:25;11.43;;;6.27;;
6135;SDS011;24008;42.664;23.372;2023-01-23T01:42:54;9.23;;;5.40;;
6135;SDS011;24008;42.664;23.372;2023-01-23T01:48:29;6.67;;;4.60;;
6135;SDS011;24008;42.664;23.372;2023-01-23T01:50:58;8.43;;;4.93;;
6135;SDS011;24008;42.664;23.372;2023-01-23T01:53:28;11.97;;;5.80;;
6135;SDS011;24008;42.664;23.372;2023-01-23T01:55:56;6.97;;;4.73;;
6135;SDS011;24008;42.664;23.372;2023-01-23T01:58:24;6.37;;;4.93;;
6135;SDS011;24008;42.664;23.372;2023-01-23T02:00:52;7.13;;;5.13;;
6135;SDS011;24008;42.664;23.372;2023-01-23T02:03:21;8.07;;;5.60;;
6135;SDS011;24008;42.664;23.372;2023-01-23T02:05:50;7.80;;;5.80;;
6135;SDS011;24008;42.664;23.372;2023-01-23T02:08:18;8.17;;;5.90;;
6135;SDS011;24008;42.664;23.372;2023-01-23T02:10:48;10.13;;;6.03;;
6135;SDS011;24008;42.664;23.372;2023-01-23T02:13:24;9.57;;;6.10;;
6135;SDS011;24008;42.664;23.372;2023-01-23T02:15:55;7.07;;;4.53;;
6135;SDS011;24008;42.664;23.372;2023-01-23T02:18:23;6.53;;;4.67;;
6135;SDS011;24008;42.664;23.372;2023-01-23T02:20:53;6.23;;;4.67;;
6135;SDS011;24008;42.664;23.372;2023-01-23T02:23:24;8.73;;;4.63;;
6135;SDS011;24008;42.664;23.372;2023-01-23T02:26:08;6.43;;;4.33;;
6135;SDS011;24008;42.664;23.372;2023-01-23T02:28:38;7.53;;;4.83;;
6135;SDS011;24008;42.664;23.372;2023-01-23T02:31:07;8.60;;;5.23;;
6135;SDS011;24008;42.664;23.372;2023-01-23T02:33:42;7.07;;;4.80;;
6135;SDS011;24008;42.664;23.372;2023-01-23T02:36:11;7.93;;;5.50;;
6135;SDS011;24008;42.664;23.372;2023-01-23T02:38:39;7.83;;;5.13;;
6135;SDS011;24008;42.664;23.372;2023-01-23T02:41:15;8.63;;;5.00;;
6135;SDS011;24008;42.664;23.372;2023-01-23T02:43:45;8.90;;;4.93;;
6135;SDS011;24008;42.664;23.372;2023-01-23T02:46:16;6.33;;;4.33;;
6135;SDS011;24008;42.664;23.372;2023-01-23T02:48:45;9.40;;;4.33;;
6135;SDS011;24008;42.664;23.372;2023-01-23T02:51:13;9.73;;;5.20;;
6135;SDS011;24008;42.664;23.372;2023-01-23T02:53:41;5.70;;;3.90;;
6135;SDS011;24008;42.664;23.372;2023-01-23T02:56:08;6.50;;;4.90;;
6135;SDS011;24008;42.664;23.372;2023-01-23T02:58:36;6.50;;;4.17;;
6135;SDS011;24008;42.664;23.372;2023-01-23T03:01:20;5.80;;;3.70;;
6135;SDS011;24008;42.664;23.372;2023-01-23T03:03:47;7.87;;;3.93;;
6135;SDS011;24008;42.664;23.372;2023-01-23T03:06:17;6.40;;;4.10;;
6135;SDS011;24008;42.664;23.372;2023-01-23T03:08:45;6.73;;;4.03;;
6135;SDS011;24008;42.664;23.372;2023-01-23T03:11:14;7.03;;;4.40;;
6135;SDS011;24008;42.664;23.372;2023-01-23T03:13:43;4.23;;;3.60;;
6135;SDS011;24008;42.664;23.372;2023-01-23T03:16:10;4.67;;;3.80;;
6135;SDS011;24008;42.664;23.372;2023-01-23T03:18:37;5.13;;;3.80;;
6135;SDS011;24008;42.664;23.372;2023-01-23T03:21:04;4.30;;;3.20;;
6135;SDS011;24008;42.664;23.372;2023-01-23T03:23:32;4.97;;;3.93;;
6135;SDS011;24008;42.664;23.372;2023-01-23T03:25:59;4.70;;;3.87;;
6135;SDS011;24008;42.664;23.372;2023-01-23T03:28:26;4.67;;;3.67;;
6135;SDS011;24008;42.664;23.372;2023-01-23T03:31:13;6.13;;;3.90;;
6135;SDS011;24008;42.664;23.372;2023-01-23T03:33:41;4.97;;;3.70;;
6135;SDS011;24008;42.664;23.372;2023-01-23T03:36:09;5.73;;;3.70;;
6135;SDS011;24008;42.664;23.372;2023-01-23T03:38:36;5.13;;;3.67;;
6135;SDS011;24008;42.664;23.372;2023-01-23T03:41:03;5.07;;;3.97;;
6135;SDS011;24008;42.664;23.372;2023-01-23T03:43:48;6.03;;;3.70;;
6135;SDS011;24008;42.664;23.372;2023-01-23T03:46:16;5.23;;;3.60;;
6135;SDS011;24008;42.664;23.372;2023-01-23T03:48:43;8.13;;;4.87;;
6135;SDS011;24008;42.664;23.372;2023-01-23T03:51:09;5.37;;;3.33;;
6135;SDS011;24008;42.664;23.372;2023-01-23T03:53:36;8.47;;;4.43;;
6135;SDS011;24008;42.664;23.372;2023-01-23T03:56:03;5.37;;;4.07;;
6135;SDS011;24008;42.664;23.372;2023-01-23T03:58:30;6.97;;;3.90;;
6135;SDS011;24008;42.664;23.372;2023-01-23T04:00:57;9.00;;;5.10;;
6135;SDS011;24008;42.664;23.372;2023-01-23T04:03:28;5.77;;;3.93;;
6135;SDS011;24008;42.664;23.372;2023-01-23T04:05:55;7.60;;;4.07;;
6135;SDS011;24008;42.664;23.372;2023-01-23T04:08:22;5.10;;;3.57;;
6135;SDS011;24008;42.664;23.372;2023-01-23T04:10:49;7.33;;;4.20;;
6135;SDS011;24008;42.664;23.372;2023-01-23T04:13:16;6.60;;;4.00;;
6135;SDS011;24008;42.664;23.372;2023-01-23T04:15:43;7.30;;;4.70;;
6135;SDS011;24008;42.664;23.372;2023-01-23T04:18:10;6.07;;;3.70;;
6135;SDS011;24008;42.664;23.372;2023-01-23T04:20:38;6.03;;;4.27;;
6135;SDS011;24008;42.664;23.372;2023-01-23T04:23:04;5.30;;;4.00;;
6135;SDS011;24008;42.664;23.372;2023-01-23T04:25:31;4.60;;;2.97;;
6135;SDS011;24008;42.664;23.372;2023-01-23T04:27:58;4.63;;;2.80;;
6135;SDS011;24008;42.664;23.372;2023-01-23T04:30:24;5.53;;;2.60;;
6135;SDS011;24008;42.664;23.372;2023-01-23T04:32:51;4.57;;;3.00;;
6135;SDS011;24008;42.664;23.372;2023-01-23T04:35:18;3.50;;;2.57;;
6135;SDS011;24008;42.664;23.372;2023-01-23T04:37:46;4.27;;;2.50;;
6135;SDS011;24008;42.664;23.372;2023-01-23T04:40:13;4.37;;;2.83;;
6135;SDS011;24008;42.664;23.372;2023-01-23T04:42:40;3.77;;;2.67;;
6135;SDS011;24008;42.664;23.372;2023-01-23T04:45:07;7.87;;;2.73;;
6135;SDS011;24008;42.664;23.372;2023-01-23T04:47:35;4.37;;;3.03;;
6135;SDS011;24008;42.664;23.372;2023-01-23T04:50:02;3.73;;;2.73;;
6135;SDS011;24008;42.664;23.372;2023-01-23T04:52:29;3.93;;;2.90;;
6135;SDS011;24008;42.664;23.372;2023-01-23T04:54:57;4.67;;;3.43;;
6135;SDS011;24008;42.664;23.372;2023-01-23T04:57:24;4.53;;;3.10;;
6135;SDS011;24008;42.664;23.372;2023-01-23T04:59:50;4.40;;;3.13;;
6135;SDS011;24008;42.664;23.372;2023-01-23T05:02:17;5.47;;;3.80;;
6135;SDS011;24008;42.664;23.372;2023-01-23T05:04:44;6.73;;;3.53;;
6135;SDS011;24008;42.664;23.372;2023-01-23T05:07:11;5.53;;;3.57;;
6135;SDS011;24008;42.664;23.372;2023-01-23T05:09:38;5.13;;;3.77;;
6135;SDS011;24008;42.664;23.372;2023-01-23T05:12:07;4.60;;;3.40;;
6135;SDS011;24008;42.664;23.372;2023-01-23T05:14:33;6.67;;;3.73;;
6135;SDS011;24008;42.664;23.372;2023-01-23T05:17:00;3.40;;;2.20;;
6135;SDS011;24008;42.664;23.372;2023-01-23T05:19:27;5.47;;;3.07;;
6135;SDS011;24008;42.664;23.372;2023-01-23T05:21:54;5.80;;;3.40;;
6135;SDS011;24008;42.664;23.372;2023-01-23T05:24:20;4.63;;;2.83;;
6135;SDS011;24008;42.664;23.372;2023-01-23T05:26:47;7.10;;;3.07;;
6135;SDS011;24008;42.664;23.372;2023-01-23T05:29:15;5.27;;;3.33;;
6135;SDS011;24008;42.664;23.372;2023-01-23T05:31:42;5.30;;;3.00;;
6135;SDS011;24008;42.664;23.372;2023-01-23T05:34:09;4.80;;;3.10;;
6135;SDS011;24008;42.664;23.372;2023-01-23T05:36:35;3.60;;;2.77;;
6135;SDS011;24008;42.664;23.372;2023-01-23T05:39:02;4.20;;;2.43;;
6135;SDS011;24008;42.664;23.372;2023-01-23T05:41:29;3.57;;;2.37;;
6135;SDS011;24008;42.664;23.372;2023-01-23T05:43:55;3.20;;;2.27;;
6135;SDS011;24008;42.664;23.372;2023-01-23T05:46:24;3.10;;;2.40;;
6135;SDS011;24008;42.664;23.372;2023-01-23T05:48:50;6.13;;;2.87;;
6135;SDS011;24008;42.664;23.372;2023-01-23T05:51:17;4.63;;;3.10;;
6135;SDS011;24008;42.664;23.372;2023-01-23T05:53:44;3.73;;;2.53;;
6135;SDS011;24008;42.664;23.372;2023-01-23T05:56:11;3.90;;;2.67;;
6135;SDS011;24008;42.664;23.372;2023-01-23T05:58:38;4.07;;;2.70;;
6135;SDS011;24008;42.664;23.372;2023-01-23T06:01:05;3.83;;;2.50;;
6135;SDS011;24008;42.664;23.372;2023-01-23T06:03:33;3.67;;;2.70;;
6135;SDS011;24008;42.664;23.372;2023-01-23T06:06:00;4.67;;;3.27;;
6135;SDS011;24008;42.664;23.372;2023-01-23T06:08:27;3.87;;;2.60;;
6135;SDS011;24008;42.664;23.372;2023-01-23T06:10:55;5.03;;;2.63;;
6135;SDS011;24008;42.664;23.372;2023-01-23T06:13:23;5.70;;;2.60;;
6135;SDS011;24008;42.664;23.372;2023-01-23T06:15:50;5.67;;;3.10;;
6135;SDS011;24008;42.664;23.372;2023-01-23T06:18:17;5.63;;;2.63;;
6135;SDS011;24008;42.664;23.372;2023-01-23T06:20:45;4.70;;;2.60;;
6135;SDS011;24008;42.664;23.372;2023-01-23T06:23:12;5.40;;;3.00;;
6135;SDS011;24008;42.664;23.372;2023-01-23T06:25:39;5.63;;;3.13;;
6135;SDS011;24008;42.664;23.372;2023-01-23T06:28:06;4.93;;;3.63;;
6135;SDS011;24008;42.664;23.372;2023-01-23T06:30:33;5.03;;;2.60;;
6135;SDS011;24008;42.664;23.372;2023-01-23T06:33:00;4.83;;;3.33;;
6135;SDS011;24008;42.664;23.372;2023-01-23T06:35:27;6.63;;;3.60;;
6135;SDS011;24008;42.664;23.372;2023-01-23T06:37:55;7.30;;;4.70;;
6135;SDS011;24008;42.664;23.372;2023-01-23T06:40:22;5.07;;;3.70;;
6135;SDS011;24008;42.664;23.372;2023-01-23T06:42:49;6.77;;;4.43;;
6135;SDS011;24008;42.664;23.372;2023-01-23T06:45:20;6.03;;;4.13;;
6135;SDS011;24008;42.664;23.372;2023-01-23T06:47:47;8.27;;;5.03;;
6135;SDS011;24008;42.664;23.372;2023-01-23T06:50:15;11.10;;;6.57;;
6135;SDS011;24008;42.664;23.372;2023-01-23T06:52:42;11.10;;;5.50;;
6135;SDS011;24008;42.664;23.372;2023-01-23T06:55:10;9.60;;;5.00;;
6135;SDS011;24008;42.664;23.372;2023-01-23T06:57:37;14.03;;;7.47;;
6135;SDS011;24008;42.664;23.372;2023-01-23T07:00:05;13.63;;;8.47;;
6135;SDS011;24008;42.664;23.372;2023-01-23T07:02:33;10.97;;;5.97;;
6135;SDS011;24008;42.664;23.372;2023-01-23T07:05:00;11.03;;;7.00;;
6135;SDS011;24008;42.664;23.372;2023-01-23T07:07:27;12.17;;;7.13;;
6135;SDS011;24008;42.664;23.372;2023-01-23T07:09:54;12.53;;;8.27;;
6135;SDS011;24008;42.664;23.372;2023-01-23T07:12:22;12.17;;;6.40;;
6135;SDS011;24008;42.664;23.372;2023-01-23T07:14:49;13.80;;;5.87;;
6135;SDS011;24008;42.664;23.372;2023-01-23T07:17:15;12.10;;;6.50;;
6135;SDS011;24008;42.664;23.372;2023-01-23T07:19:42;9.40;;;6.13;;
6135;SDS011;24008;42.664;23.372;2023-01-23T07:22:09;12.20;;;7.27;;
6135;SDS011;24008;42.664;23.372;2023-01-23T07:24:36;14.00;;;7.40;;
6135;SDS011;24008;42.664;23.372;2023-01-23T07:27:03;12.30;;;8.23;;
6135;SDS011;24008;42.664;23.372;2023-01-23T07:29:31;15.20;;;7.67;;
6135;SDS011;24008;42.664;23.372;2023-01-23T07:31:58;15.47;;;9.37;;
6135;SDS011;24008;42.664;23.372;2023-01-23T07:34:25;17.07;;;7.90;;
6135;SDS011;24008;42.664;23.372;2023-01-23T07:36:52;11.43;;;6.47;;
6135;SDS011;24008;42.664;23.372;2023-01-23T07:39:19;17.33;;;9.03;;
6135;SDS011;24008;42.664;23.372;2023-01-23T07:41:45;15.23;;;7.90;;
6135;SDS011;24008;42.664;23.372;2023-01-23T07:44:13;12.50;;;7.27;;
6135;SDS011;24008;42.664;23.372;2023-01-23T07:46:44;13.67;;;7.20;;
6135;SDS011;24008;42.664;23.372;2023-01-23T07:49:11;13.97;;;9.10;;
6135;SDS011;24008;42.664;23.372;2023-01-23T07:51:38;12.50;;;7.40;;
6135;SDS011;24008;42.664;23.372;2023-01-23T07:54:05;15.23;;;8.17;;
6135;SDS011;24008;42.664;23.372;2023-01-23T07:56:32;11.00;;;6.80;;
6135;SDS011;24008;42.664;23.372;2023-01-23T07:58:59;16.63;;;8.40;;
6135;SDS011;24008;42.664;23.372;2023-01-23T08:01:26;15.80;;;7.30;;
6135;SDS011;24008;42.664;23.372;2023-01-23T08:03:54;12.17;;;7.07;;
6135;SDS011;24008;42.664;23.372;2023-01-23T08:06:21;12.17;;;6.77;;
6135;SDS011;24008;42.664;23.372;2023-01-23T08:08:48;14.73;;;8.73;;
6135;SDS011;24008;42.664;23.372;2023-01-23T08:11:15;10.83;;;7.07;;
6135;SDS011;24008;42.664;23.372;2023-01-23T08:13:42;10.67;;;5.70;;
6135;SDS011;24008;42.664;23.372;2023-01-23T08:16:08;8.07;;;5.00;;
6135;SDS011;24008;42.664;23.372;2023-01-23T08:18:35;12.03;;;6.43;;
6135;SDS011;24008;42.664;23.372;2023-01-23T08:21:04;12.13;;;6.50;;
6135;SDS011;24008;42.664;23.372;2023-01-23T08:23:31;8.43;;;4.87;;
6135;SDS011;24008;42.664;23.372;2023-01-23T08:26:06;10.97;;;6.20;;
6135;SDS011;24008;42.664;23.372;2023-01-23T08:28:34;9.97;;;5.37;;
6135;SDS011;24008;42.664;23.372;2023-01-23T08:31:01;9.80;;;5.37;;
6135;SDS011;24008;42.664;23.372;2023-01-23T08:33:33;8.40;;;4.93;;
6135;SDS011;24008;42.664;23.372;2023-01-23T08:36:00;14.93;;;4.80;;
6135;SDS011;24008;42.664;23.372;2023-01-23T08:38:28;12.67;;;6.03;;
6135;SDS011;24008;42.664;23.372;2023-01-23T08:40:57;7.77;;;4.73;;
6135;SDS011;24008;42.664;23.372;2023-01-23T08:43:25;9.40;;;5.13;;
6135;SDS011;24008;42.664;23.372;2023-01-23T08:45:54;8.67;;;5.50;;
6135;SDS011;24008;42.664;23.372;2023-01-23T08:48:22;8.90;;;5.27;;
6135;SDS011;24008;42.664;23.372;2023-01-23T08:50:51;7.03;;;4.67;;
6135;SDS011;24008;42.664;23.372;2023-01-23T08:53:25;7.47;;;4.67;;
6135;SDS011;24008;42.664;23.372;2023-01-23T08:55:57;5.83;;;3.73;;
6135;SDS011;24008;42.664;23.372;2023-01-23T08:58:24;7.30;;;4.53;;
6135;SDS011;24008;42.664;23.372;2023-01-23T09:00:51;8.67;;;4.50;;
6135;SDS011;24008;42.664;23.372;2023-01-23T09:03:18;5.37;;;3.23;;
6135;SDS011;24008;42.664;23.372;2023-01-23T09:05:44;6.90;;;3.90;;
6135;SDS011;24008;42.664;23.372;2023-01-23T09:08:11;7.20;;;3.33;;
6135;SDS011;24008;42.664;23.372;2023-01-23T09:10:38;5.37;;;3.43;;
6135;SDS011;24008;42.664;23.372;2023-01-23T09:13:06;9.83;;;4.37;;
6135;SDS011;24008;42.664;23.372;2023-01-23T09:15:33;7.40;;;4.00;;
6135;SDS011;24008;42.664;23.372;2023-01-23T09:18:00;7.77;;;4.27;;
6135;SDS011;24008;42.664;23.372;2023-01-23T09:20:26;7.33;;;4.13;;
6135;SDS011;24008;42.664;23.372;2023-01-23T09:22:53;7.93;;;5.40;;
6135;SDS011;24008;42.664;23.372;2023-01-23T09:25:20;10.43;;;5.60;;
6135;SDS011;24008;42.664;23.372;2023-01-23T09:27:47;6.70;;;4.13;;
6135;SDS011;24008;42.664;23.372;2023-01-23T09:30:16;5.37;;;3.77;;
6135;SDS011;24008;42.664;23.372;2023-01-23T09:32:43;6.47;;;4.40;;
6135;SDS011;24008;42.664;23.372;2023-01-23T09:35:10;6.87;;;3.93;;
6135;SDS011;24008;42.664;23.372;2023-01-23T09:37:36;8.33;;;5.03;;
6135;SDS011;24008;42.664;23.372;2023-01-23T09:40:21;8.03;;;5.10;;
6135;SDS011;24008;42.664;23.372;2023-01-23T09:42:50;5.67;;;3.23;;
6135;SDS011;24008;42.664;23.372;2023-01-23T09:45:21;7.53;;;4.50;;
6135;SDS011;24008;42.664;23.372;2023-01-23T09:47:53;5.20;;;3.07;;
6135;SDS011;24008;42.664;23.372;2023-01-23T09:50:30;6.67;;;4.23;;
6135;SDS011;24008;42.664;23.372;2023-01-23T09:53:04;7.73;;;4.93;;
6135;SDS011;24008;42.664;23.372;2023-01-23T09:55:38;7.67;;;5.00;;
6135;SDS011;24008;42.664;23.372;2023-01-23T09:58:10;7.30;;;4.50;;
6135;SDS011;24008;42.664;23.372;2023-01-23T10:00:45;6.03;;;4.37;;
6135;SDS011;24008;42.664;23.372;2023-01-23T10:03:13;8.40;;;4.63;;
6135;SDS011;24008;42.664;23.372;2023-01-23T10:05:42;6.47;;;4.43;;
6135;SDS011;24008;42.664;23.372;2023-01-23T10:08:19;9.70;;;5.37;;
6135;SDS011;24008;42.664;23.372;2023-01-23T10:10:56;8.87;;;4.87;;
6135;SDS011;24008;42.664;23.372;2023-01-23T10:13:46;9.33;;;5.13;;
6135;SDS011;24008;42.664;23.372;2023-01-23T10:16:30;7.33;;;4.03;;
6135;SDS011;24008;42.664;23.372;2023-01-23T10:19:08;10.07;;;5.40;;
6135;SDS011;24008;42.664;23.372;2023-01-23T10:21:49;8.20;;;4.93;;
6135;SDS011;24008;42.664;23.372;2023-01-23T10:24:26;8.97;;;5.00;;
6135;SDS011;24008;42.664;23.372;2023-01-23T10:27:10;9.43;;;5.63;;
6135;SDS011;24008;42.664;23.372;2023-01-23T10:29:44;10.03;;;6.03;;
6135;SDS011;24008;42.664;23.372;2023-01-23T10:32:19;11.77;;;5.53;;
6135;SDS011;24008;42.664;23.372;2023-01-23T10:34:53;8.27;;;5.30;;
6135;SDS011;24008;42.664;23.372;2023-01-23T10:37:28;8.63;;;5.53;;
6135;SDS011;24008;42.664;23.372;2023-01-23T10:40:08;10.20;;;6.00;;
6135;SDS011;24008;42.664;23.372;2023-01-23T10:42:38;11.20;;;6.87;;
6135;SDS011;24008;42.664;23.372;2023-01-23T10:45:10;8.13;;;4.93;;
6135;SDS011;24008;42.664;23.372;2023-01-23T10:47:44;10.70;;;6.17;;
6135;SDS011;24008;42.664;23.372;2023-01-23T10:50:13;10.63;;;6.40;;
6135;SDS011;24008;42.664;23.372;2023-01-23T10:52:42;9.63;;;6.20;;
6135;SDS011;24008;42.664;23.372;2023-01-23T10:55:27;10.87;;;6.53;;
6135;SDS011;24008;42.664;23.372;2023-01-23T10:57:57;12.33;;;6.83;;
6135;SDS011;24008;42.664;23.372;2023-01-23T11:00:29;14.20;;;8.27;;
6135;SDS011;24008;42.664;23.372;2023-01-23T11:06:02;14.07;;;6.97;;
6135;SDS011;24008;42.664;23.372;2023-01-23T11:08:32;12.17;;;7.13;;
6135;SDS011;24008;42.664;23.372;2023-01-23T11:11:16;12.40;;;8.00;;
6135;SDS011;24008;42.664;23.372;2023-01-23T11:13:47;14.07;;;6.73;;
6135;SDS011;24008;42.664;23.372;2023-01-23T11:16:16;13.27;;;7.23;;
6135;SDS011;24008;42.664;23.372;2023-01-23T11:18:48;11.60;;;7.13;;
6135;SDS011;24008;42.664;23.372;2023-01-23T11:21:21;8.37;;;5.87;;
6135;SDS011;24008;42.664;23.372;2023-01-23T11:24:06;10.13;;;5.30;;
6135;SDS011;24008;42.664;23.372;2023-01-23T11:26:35;9.67;;;5.63;;
6135;SDS011;24008;42.664;23.372;2023-01-23T11:29:07;10.73;;;7.07;;
6135;SDS011;24008;42.664;23.372;2023-01-23T11:31:45;13.73;;;7.43;;
6135;SDS011;24008;42.664;23.372;2023-01-23T11:34:14;11.97;;;7.03;;
6135;SDS011;24008;42.664;23.372;2023-01-23T11:36:45;9.43;;;6.90;;
6135;SDS011;24008;42.664;23.372;2023-01-23T11:39:32;10.30;;;7.20;;
6135;SDS011;24008;42.664;23.372;2023-01-23T11:42:06;11.30;;;7.43;;
6135;SDS011;24008;42.664;23.372;2023-01-23T11:44:36;10.00;;;6.30;;
6135;SDS011;24008;42.664;23.372;2023-01-23T11:47:09;11.87;;;7.80;;
6135;SDS011;24008;42.664;23.372;2023-01-23T11:52:48;9.83;;;6.90;;
6135;SDS011;24008;42.664;23.372;2023-01-23T11:55:29;7.80;;;5.13;;
6135;SDS011;24008;42.664;23.372;2023-01-23T11:58:35;8.97;;;5.53;;
6135;SDS011;24008;42.664;23.372;2023-01-23T12:01:18;9.73;;;5.43;;
6135;SDS011;24008;42.664;23.372;2023-01-23T12:04:03;10.37;;;6.70;;
6135;SDS011;24008;42.664;23.372;2023-01-23T12:06:49;10.77;;;6.93;;
6135;SDS011;24008;42.664;23.372;2023-01-23T12:09:25;11.23;;;6.10;;
6135;SDS011;24008;42.664;23.372;2023-01-23T12:12:02;7.33;;;4.77;;
6135;SDS011;24008;42.664;23.372;2023-01-23T12:14:44;9.83;;;6.40;;
6135;SDS011;24008;42.664;23.372;2023-01-23T12:17:24;15.07;;;8.70;;
6135;SDS011;24008;42.664;23.372;2023-01-23T12:20:00;14.20;;;8.70;;
6135;SDS011;24008;42.664;23.372;2023-01-23T12:22:44;9.37;;;6.00;;
6135;SDS011;24008;42.664;23.372;2023-01-23T12:25:21;11.57;;;7.47;;
6135;SDS011;24008;42.664;23.372;2023-01-23T12:27:58;14.03;;;8.47;;
6135;SDS011;24008;42.664;23.372;2023-01-23T12:30:39;11.20;;;7.37;;
6135;SDS011;24008;42.664;23.372;2023-01-23T12:33:28;12.63;;;7.90;;
6135;SDS011;24008;42.664;23.372;2023-01-23T12:36:13;14.07;;;8.30;;
6135;SDS011;24008;42.664;23.372;2023-01-23T12:39:02;12.83;;;7.70;;
6135;SDS011;24008;42.664;23.372;2023-01-23T12:41:38;12.87;;;8.13;;
6135;SDS011;24008;42.664;23.372;2023-01-23T12:44:10;12.17;;;7.10;;
6135;SDS011;24008;42.664;23.372;2023-01-23T12:46:40;12.40;;;7.63;;
6135;SDS011;24008;42.664;23.372;2023-01-23T12:49:20;8.73;;;4.80;;
6135;SDS011;24008;42.664;23.372;2023-01-23T12:51:52;11.63;;;7.23;;
6135;SDS011;24008;42.664;23.372;2023-01-23T12:54:26;8.90;;;5.33;;
6135;SDS011;24008;42.664;23.372;2023-01-23T12:57:01;9.87;;;6.23;;
6135;SDS011;24008;42.664;23.372;2023-01-23T12:59:32;10.27;;;6.87;;
6135;SDS011;24008;42.664;23.372;2023-01-23T13:02:13;11.30;;;6.97;;
6135;SDS011;24008;42.664;23.372;2023-01-23T13:04:54;10.57;;;6.03;;
6135;SDS011;24008;42.664;23.372;2023-01-23T13:07:35;15.90;;;7.70;;
6135;SDS011;24008;42.664;23.372;2023-01-23T13:10:19;10.00;;;4.37;;
6135;SDS011;24008;42.664;23.372;2023-01-23T13:13:21;7.70;;;5.43;;
6135;SDS011;24008;42.664;23.372;2023-01-23T13:16:01;8.70;;;6.57;;
6135;SDS011;24008;42.664;23.372;2023-01-23T13:18:34;14.30;;;7.43;;
6135;SDS011;24008;42.664;23.372;2023-01-23T13:21:16;10.30;;;7.60;;
6135;SDS011;24008;42.664;23.372;2023-01-23T13:24:22;14.37;;;8.13;;
6135;SDS011;24008;42.664;23.372;2023-01-23T13:30:01;12.87;;;8.17;;
6135;SDS011;24008;42.664;23.372;2023-01-23T13:32:30;12.00;;;7.83;;
6135;SDS011;24008;42.664;23.372;2023-01-23T13:34:57;10.97;;;7.03;;
6135;SDS011;24008;42.664;23.372;2023-01-23T13:40:17;15.97;;;9.03;;
6135;SDS011;24008;42.664;23.372;2023-01-23T13:42:48;8.97;;;6.23;;
6135;SDS011;24008;42.664;23.372;2023-01-23T13:45:32;10.60;;;5.77;;
6135;SDS011;24008;42.664;23.372;2023-01-23T13:51:21;14.93;;;7.17;;
6135;SDS011;24008;42.664;23.372;2023-01-23T13:53:49;14.93;;;9.33;;
6135;SDS011;24008;42.664;23.372;2023-01-23T13:56:36;15.70;;;8.97;;
6135;SDS011;24008;42.664;23.372;2023-01-23T13:59:10;12.53;;;6.93;;
6135;SDS011;24008;42.664;23.372;2023-01-23T14:01:49;10.93;;;6.23;;
6135;SDS011;24008;42.664;23.372;2023-01-23T14:04:38;14.50;;;9.27;;
6135;SDS011;24008;42.664;23.372;2023-01-23T14:07:26;15.97;;;8.17;;
6135;SDS011;24008;42.664;23.372;2023-01-23T14:10:19;14.60;;;8.93;;
6135;SDS011;24008;42.664;23.372;2023-01-23T14:12:48;14.70;;;8.43;;
6135;SDS011;24008;42.664;23.372;2023-01-23T14:15:21;15.87;;;8.97;;
6135;SDS011;24008;42.664;23.372;2023-01-23T14:18:18;16.57;;;9.30;;
6135;SDS011;24008;42.664;23.372;2023-01-23T14:20:51;15.23;;;9.10;;
6135;SDS011;24008;42.664;23.372;2023-01-23T14:23:22;16.57;;;9.53;;
6135;SDS011;24008;42.664;23.372;2023-01-23T14:25:56;14.53;;;8.50;;
6135;SDS011;24008;42.664;23.372;2023-01-23T14:28:23;12.20;;;7.67;;
6135;SDS011;24008;42.664;23.372;2023-01-23T14:30:53;14.37;;;7.63;;
6135;SDS011;24008;42.664;23.372;2023-01-23T14:33:21;12.97;;;7.47;;
6135;SDS011;24008;42.664;23.372;2023-01-23T14:35:48;13.50;;;7.90;;
6135;SDS011;24008;42.664;23.372;2023-01-23T14:38:19;13.83;;;6.90;;
6135;SDS011;24008;42.664;23.372;2023-01-23T14:40:52;12.87;;;7.50;;
6135;SDS011;24008;42.664;23.372;2023-01-23T14:43:20;13.63;;;7.73;;
6135;SDS011;24008;42.664;23.372;2023-01-23T14:45:51;16.33;;;8.73;;
6135;SDS011;24008;42.664;23.372;2023-01-23T14:48:27;11.20;;;6.43;;
6135;SDS011;24008;42.664;23.372;2023-01-23T14:51:00;10.50;;;6.50;;
6135;SDS011;24008;42.664;23.372;2023-01-23T14:53:29;13.87;;;8.13;;
6135;SDS011;24008;42.664;23.372;2023-01-23T14:55:56;10.00;;;6.10;;
6135;SDS011;24008;42.664;23.372;2023-01-23T14:58:26;10.90;;;7.20;;
6135;SDS011;24008;42.664;23.372;2023-01-23T15:00:54;10.63;;;6.50;;
6135;SDS011;24008;42.664;23.372;2023-01-23T15:03:33;15.10;;;7.97;;
6135;SDS011;24008;42.664;23.372;2023-01-23T15:06:01;10.43;;;6.20;;
6135;SDS011;24008;42.664;23.372;2023-01-23T15:08:31;14.33;;;8.57;;
6135;SDS011;24008;42.664;23.372;2023-01-23T15:11:00;14.90;;;7.90;;
6135;SDS011;24008;42.664;23.372;2023-01-23T15:13:30;14.07;;;8.30;;
6135;SDS011;24008;42.664;23.372;2023-01-23T15:16:04;11.70;;;7.30;;
6135;SDS011;24008;42.664;23.372;2023-01-23T15:18:38;10.00;;;6.30;;
6135;SDS011;24008;42.664;23.372;2023-01-23T15:21:21;13.77;;;7.77;;
6135;SDS011;24008;42.664;23.372;2023-01-23T15:23:58;8.73;;;5.73;;